sensor_id;sensor_type;location;lat;lon;timestamp;pressure;altitude;pressure_sealevel;temperature;humidity
61961;BME280;47923;42.506;24.192;2022-07-17T00:00:38;95789.53;;;17.38;67.07
61961;BME280;47923;42.506;24.192;2022-07-17T00:03:08;95652.81;;;16.50;67.33
61961;BME280;47923;42.506;24.192;2022-07-17T00:05:34;95787.19;;;17.40;66.34
61961;BME280;47923;42.506;24.192;2022-07-17T00:07:59;95717.88;;;17.05;66.66
61961;BME280;47923;42.506;24.192;2022-07-17T00:10:25;95780.16;;;17.50;66.22
61961;BME280;47923;42.506;24.192;2022-07-17T00:12:50;95689.06;;;16.69;66.32
61961;BME280;47923;42.506;24.192;2022-07-17T00:15:16;95663.34;;;16.70;66.10
61961;BME280;47923;42.506;24.192;2022-07-17T00:17:41;95789.50;;;17.52;67.28
61961;BME280;47923;42.506;24.192;2022-07-17T00:20:07;95649.34;;;16.46;66.96
61961;BME280;47923;42.506;24.192;2022-07-17T00:22:33;95739.31;;;17.00;67.32
61961;BME280;47923;42.506;24.192;2022-07-17T00:24:59;95671.13;;;16.57;67.43
61961;BME280;47923;42.506;24.192;2022-07-17T00:27:24;95748.66;;;16.88;66.72
61961;BME280;47923;42.506;24.192;2022-07-17T00:29:50;95739.31;;;16.50;66.70
61961;BME280;47923;42.506;24.192;2022-07-17T00:32:15;95676.22;;;16.48;66.62
61961;BME280;47923;42.506;24.192;2022-07-17T00:34:41;95733.88;;;16.68;67.27
61961;BME280;47923;42.506;24.192;2022-07-17T00:37:07;95735.03;;;16.92;66.73
61961;BME280;47923;42.506;24.192;2022-07-17T00:39:32;95560.56;;;15.70;65.66
61961;BME280;47923;42.506;24.192;2022-07-17T00:41:59;95653.63;;;16.33;65.67
61961;BME280;47923;42.506;24.192;2022-07-17T00:44:26;95648.56;;;16.14;67.85
61961;BME280;47923;42.506;24.192;2022-07-17T00:46:52;95398.63;;;14.47;67.68
61961;BME280;47923;42.506;24.192;2022-07-17T00:49:17;95771.69;;;17.05;68.21
61961;BME280;47923;42.506;24.192;2022-07-17T00:51:43;95699.56;;;16.42;68.29
61961;BME280;47923;42.506;24.192;2022-07-17T00:54:11;95759.22;;;16.72;68.58
61961;BME280;47923;42.506;24.192;2022-07-17T00:56:39;95751.44;;;16.70;68.38
61961;BME280;47923;42.506;24.192;2022-07-17T00:59:06;95704.25;;;16.30;68.07
61961;BME280;47923;42.506;24.192;2022-07-17T01:01:31;95712.78;;;16.22;68.84
61961;BME280;47923;42.506;24.192;2022-07-17T01:03:57;95736.97;;;16.55;67.52
61961;BME280;47923;42.506;24.192;2022-07-17T01:06:23;95467.41;;;14.61;69.25
61961;BME280;47923;42.506;24.192;2022-07-17T01:08:49;95738.13;;;16.33;69.34
61961;BME280;47923;42.506;24.192;2022-07-17T01:11:14;95743.59;;;16.33;68.40
61961;BME280;47923;42.506;24.192;2022-07-17T01:13:40;95321.44;;;13.53;69.28
61961;BME280;47923;42.506;24.192;2022-07-17T01:16:07;95749.03;;;16.51;69.24
61961;BME280;47923;42.506;24.192;2022-07-17T01:18:32;95859.00;;;17.01;68.68
61961;BME280;47923;42.506;24.192;2022-07-17T01:21:06;95639.97;;;15.97;64.35
61961;BME280;47923;42.506;24.192;2022-07-17T01:23:32;95659.03;;;16.58;60.78
61961;BME280;47923;42.506;24.192;2022-07-17T01:25:58;95657.44;;;16.89;59.01
61961;BME280;47923;42.506;24.192;2022-07-17T01:28:23;95710.34;;;17.42;57.93
61961;BME280;47923;42.506;24.192;2022-07-17T01:30:51;95702.81;;;17.67;56.26
61961;BME280;47923;42.506;24.192;2022-07-17T01:33:17;95427.84;;;16.03;54.88
61961;BME280;47923;42.506;24.192;2022-07-17T01:35:43;95439.91;;;16.02;55.28
61961;BME280;47923;42.506;24.192;2022-07-17T01:38:09;95478.75;;;16.38;54.43
61961;BME280;47923;42.506;24.192;2022-07-17T01:40:35;95758.72;;;18.32;53.83
61961;BME280;47923;42.506;24.192;2022-07-17T01:43:00;95323.59;;;15.78;52.35
61961;BME280;47923;42.506;24.192;2022-07-17T01:45:26;95765.34;;;18.87;52.33
61961;BME280;47923;42.506;24.192;2022-07-17T01:47:52;95718.50;;;18.81;51.33
61961;BME280;47923;42.506;24.192;2022-07-17T01:50:17;95632.13;;;18.32;50.44
61961;BME280;47923;42.506;24.192;2022-07-17T01:52:44;95799.09;;;19.63;49.91
61961;BME280;47923;42.506;24.192;2022-07-17T01:55:14;95755.56;;;19.68;49.58
61961;BME280;47923;42.506;24.192;2022-07-17T01:57:41;95752.34;;;19.77;48.66
61961;BME280;47923;42.506;24.192;2022-07-17T02:00:09;95615.75;;;18.73;48.43
61961;BME280;47923;42.506;24.192;2022-07-17T02:02:35;95811.41;;;20.12;48.77
61961;BME280;47923;42.506;24.192;2022-07-17T02:05:01;95711.63;;;19.41;48.52
61961;BME280;47923;42.506;24.192;2022-07-17T02:07:27;95497.41;;;17.83;48.27
61961;BME280;47923;42.506;24.192;2022-07-17T02:09:52;95840.81;;;20.46;47.78
61961;BME280;47923;42.506;24.192;2022-07-17T02:12:18;95742.88;;;19.81;47.64
61961;BME280;47923;42.506;24.192;2022-07-17T02:14:44;95730.63;;;19.55;48.07
61961;BME280;47923;42.506;24.192;2022-07-17T02:17:09;95694.50;;;19.33;48.55
61961;BME280;47923;42.506;24.192;2022-07-17T02:19:35;95735.44;;;19.44;48.62
61961;BME280;47923;42.506;24.192;2022-07-17T02:22:00;95707.94;;;19.21;48.75
61961;BME280;47923;42.506;24.192;2022-07-17T02:24:26;95752.94;;;19.57;48.42
61961;BME280;47923;42.506;24.192;2022-07-17T02:26:51;95827.56;;;20.06;48.85
61961;BME280;47923;42.506;24.192;2022-07-17T02:29:17;95723.59;;;19.17;49.14
61961;BME280;47923;42.506;24.192;2022-07-17T02:31:42;95843.50;;;19.84;49.35
61961;BME280;47923;42.506;24.192;2022-07-17T02:34:08;95735.13;;;19.01;49.75
61961;BME280;47923;42.506;24.192;2022-07-17T02:36:33;95709.53;;;18.81;49.73
61961;BME280;47923;42.506;24.192;2022-07-17T02:38:59;95723.25;;;18.73;50.39
61961;BME280;47923;42.506;24.192;2022-07-17T02:41:25;95748.13;;;18.90;51.25
61961;BME280;47923;42.506;24.192;2022-07-17T02:43:51;95685.69;;;18.29;51.44
61961;BME280;47923;42.506;24.192;2022-07-17T02:46:16;95508.66;;;16.56;51.37
61961;BME280;47923;42.506;24.192;2022-07-17T02:48:42;95848.03;;;19.16;52.16
61961;BME280;47923;42.506;24.192;2022-07-17T02:51:08;95821.03;;;18.69;52.28
61961;BME280;47923;42.506;24.192;2022-07-17T02:53:34;95812.47;;;18.57;52.59
61961;BME280;47923;42.506;24.192;2022-07-17T02:55:59;95746.41;;;17.99;53.11
61961;BME280;47923;42.506;24.192;2022-07-17T02:58:25;95698.94;;;17.61;53.07
61961;BME280;47923;42.506;24.192;2022-07-17T03:00:51;95776.38;;;18.17;53.39
61961;BME280;47923;42.506;24.192;2022-07-17T03:03:16;95804.84;;;18.30;53.30
61961;BME280;47923;42.506;24.192;2022-07-17T03:05:43;95738.63;;;17.94;53.59
61961;BME280;47923;42.506;24.192;2022-07-17T03:08:08;95862.06;;;18.69;53.93
61961;BME280;47923;42.506;24.192;2022-07-17T03:10:34;95715.69;;;17.70;53.76
61961;BME280;47923;42.506;24.192;2022-07-17T03:12:59;95858.50;;;18.72;53.40
61961;BME280;47923;42.506;24.192;2022-07-17T03:15:25;95809.84;;;18.39;53.41
61961;BME280;47923;42.506;24.192;2022-07-17T03:17:50;95629.78;;;16.98;53.45
61961;BME280;47923;42.506;24.192;2022-07-17T03:20:15;95759.31;;;17.95;53.37
61961;BME280;47923;42.506;24.192;2022-07-17T03:22:41;95812.59;;;18.39;53.08
61961;BME280;47923;42.506;24.192;2022-07-17T03:25:07;95828.56;;;18.51;53.57
61961;BME280;47923;42.506;24.192;2022-07-17T03:27:33;95791.13;;;18.37;53.05
61961;BME280;47923;42.506;24.192;2022-07-17T03:29:59;95660.78;;;17.43;52.75
61961;BME280;47923;42.506;24.192;2022-07-17T03:32:24;95695.72;;;17.87;52.70
61961;BME280;47923;42.506;24.192;2022-07-17T03:34:50;95386.56;;;16.01;52.73
61961;BME280;47923;42.506;24.192;2022-07-17T03:37:15;95749.03;;;18.13;52.62
61961;BME280;47923;42.506;24.192;2022-07-17T03:39:41;95805.97;;;18.95;50.10
61961;BME280;47923;42.506;24.192;2022-07-17T03:42:07;95826.00;;;19.30;49.10
61961;BME280;47923;42.506;24.192;2022-07-17T03:44:32;95796.56;;;19.38;48.19
61961;BME280;47923;42.506;24.192;2022-07-17T03:46:58;95736.91;;;19.18;47.12
61961;BME280;47923;42.506;24.192;2022-07-17T03:49:23;95901.59;;;20.40;46.81
61961;BME280;47923;42.506;24.192;2022-07-17T03:51:49;95906.13;;;20.58;46.34
61961;BME280;47923;42.506;24.192;2022-07-17T03:54:15;95838.13;;;20.69;44.14
61961;BME280;47923;42.506;24.192;2022-07-17T03:56:40;95790.03;;;22.34;40.03
61961;BME280;47923;42.506;24.192;2022-07-17T03:59:06;95814.19;;;23.60;37.86
61961;BME280;47923;42.506;24.192;2022-07-17T04:01:31;95552.00;;;23.93;34.28
61961;BME280;47923;42.506;24.192;2022-07-17T04:03:57;95873.09;;;27.98;29.91
61961;BME280;47923;42.506;24.192;2022-07-17T04:06:22;95474.66;;;25.90;28.08
61961;BME280;47923;42.506;24.192;2022-07-17T04:08:48;95824.78;;;28.51;26.63
61961;BME280;47923;42.506;24.192;2022-07-17T04:11:13;95836.34;;;29.01;25.62
61961;BME280;47923;42.506;24.192;2022-07-17T04:13:39;95798.84;;;30.07;23.00
61961;BME280;47923;42.506;24.192;2022-07-17T04:16:04;95870.03;;;31.05;21.43
61961;BME280;47923;42.506;24.192;2022-07-17T04:18:32;95840.97;;;32.03;23.08
61961;BME280;47923;42.506;24.192;2022-07-17T04:21:01;95769.97;;;32.72;21.94
61961;BME280;47923;42.506;24.192;2022-07-17T04:23:27;95836.19;;;33.56;21.82
61961;BME280;47923;42.506;24.192;2022-07-17T04:25:53;95811.72;;;33.56;20.91
61961;BME280;47923;42.506;24.192;2022-07-17T04:28:19;95872.81;;;35.10;19.36
61961;BME280;47923;42.506;24.192;2022-07-17T04:30:45;95736.56;;;34.87;17.85
61961;BME280;47923;42.506;24.192;2022-07-17T04:33:11;95870.38;;;35.98;17.12
61961;BME280;47923;42.506;24.192;2022-07-17T04:35:37;95862.19;;;36.59;16.40
61961;BME280;47923;42.506;24.192;2022-07-17T04:38:03;95847.53;;;37.31;16.37
61961;BME280;47923;42.506;24.192;2022-07-17T04:40:29;95851.97;;;37.76;15.11
61961;BME280;47923;42.506;24.192;2022-07-17T04:42:55;95770.72;;;37.55;14.34
61961;BME280;47923;42.506;24.192;2022-07-17T04:45:20;95845.97;;;37.36;15.23
61961;BME280;47923;42.506;24.192;2022-07-17T04:47:46;95802.88;;;37.17;14.60
61961;BME280;47923;42.506;24.192;2022-07-17T04:50:11;95936.16;;;39.28;13.44
61961;BME280;47923;42.506;24.192;2022-07-17T04:52:37;95888.09;;;39.73;13.94
61961;BME280;47923;42.506;24.192;2022-07-17T04:55:03;95873.75;;;39.71;13.83
61961;BME280;47923;42.506;24.192;2022-07-17T04:57:29;95931.53;;;41.24;13.15
61961;BME280;47923;42.506;24.192;2022-07-17T04:59:54;95916.31;;;40.79;13.64
61961;BME280;47923;42.506;24.192;2022-07-17T05:02:20;95922.13;;;41.29;13.71
61961;BME280;47923;42.506;24.192;2022-07-17T05:04:45;95855.25;;;41.75;12.28
61961;BME280;47923;42.506;24.192;2022-07-17T05:07:12;95869.72;;;42.80;11.65
61961;BME280;47923;42.506;24.192;2022-07-17T05:09:37;95937.69;;;41.77;12.31
61961;BME280;47923;42.506;24.192;2022-07-17T05:12:03;95926.09;;;41.96;11.58
61961;BME280;47923;42.506;24.192;2022-07-17T05:14:29;95863.63;;;42.17;11.86
61961;BME280;47923;42.506;24.192;2022-07-17T05:16:54;95727.84;;;43.36;10.62
61961;BME280;47923;42.506;24.192;2022-07-17T05:19:20;95711.88;;;43.55;10.04
61961;BME280;47923;42.506;24.192;2022-07-17T05:21:46;95918.31;;;44.04;10.19
61961;BME280;47923;42.506;24.192;2022-07-17T05:24:11;95922.41;;;44.97;9.71
61961;BME280;47923;42.506;24.192;2022-07-17T05:26:37;95868.75;;;45.36;9.84
61961;BME280;47923;42.506;24.192;2022-07-17T05:29:02;95902.94;;;45.86;8.77
61961;BME280;47923;42.506;24.192;2022-07-17T05:31:28;95860.63;;;44.19;9.68
61961;BME280;47923;42.506;24.192;2022-07-17T05:33:53;95887.75;;;44.20;9.23
61961;BME280;47923;42.506;24.192;2022-07-17T05:36:18;95857.94;;;44.13;10.02
61961;BME280;47923;42.506;24.192;2022-07-17T05:38:44;95868.84;;;43.23;10.02
61961;BME280;47923;42.506;24.192;2022-07-17T05:41:09;95867.34;;;43.68;9.95
61961;BME280;47923;42.506;24.192;2022-07-17T05:43:35;95928.72;;;45.45;10.15
61961;BME280;47923;42.506;24.192;2022-07-17T05:46:00;95887.41;;;46.66;9.14
61961;BME280;47923;42.506;24.192;2022-07-17T05:48:26;95875.81;;;47.54;7.52
61961;BME280;47923;42.506;24.192;2022-07-17T05:50:52;95778.69;;;46.73;7.81
61961;BME280;47923;42.506;24.192;2022-07-17T05:53:17;95916.72;;;47.11;8.34
61961;BME280;47923;42.506;24.192;2022-07-17T05:55:43;95915.94;;;47.74;8.70
61961;BME280;47923;42.506;24.192;2022-07-17T05:58:09;95949.97;;;48.55;7.73
61961;BME280;47923;42.506;24.192;2022-07-17T06:00:35;95878.78;;;47.10;7.90
61961;BME280;47923;42.506;24.192;2022-07-17T06:03:01;95851.06;;;45.30;8.65
61961;BME280;47923;42.506;24.192;2022-07-17T06:05:27;95817.88;;;43.48;9.15
61961;BME280;47923;42.506;24.192;2022-07-17T06:07:56;95854.47;;;44.38;9.98
61961;BME280;47923;42.506;24.192;2022-07-17T06:10:23;95955.13;;;46.73;8.99
61961;BME280;47923;42.506;24.192;2022-07-17T06:12:48;95915.25;;;47.46;8.08
61961;BME280;47923;42.506;24.192;2022-07-17T06:15:15;95812.06;;;46.44;8.03
61961;BME280;47923;42.506;24.192;2022-07-17T06:17:41;95934.94;;;47.42;8.18
61961;BME280;47923;42.506;24.192;2022-07-17T06:20:07;95907.38;;;45.96;8.32
61961;BME280;47923;42.506;24.192;2022-07-17T06:22:32;95932.53;;;45.48;9.21
61961;BME280;47923;42.506;24.192;2022-07-17T06:24:58;95929.53;;;47.93;8.03
61961;BME280;47923;42.506;24.192;2022-07-17T06:27:23;95942.75;;;49.53;7.13
61961;BME280;47923;42.506;24.192;2022-07-17T06:29:49;95898.22;;;48.82;7.19
61961;BME280;47923;42.506;24.192;2022-07-17T06:32:15;95916.47;;;47.99;7.01
61961;BME280;47923;42.506;24.192;2022-07-17T06:34:40;95876.31;;;48.96;7.00
61961;BME280;47923;42.506;24.192;2022-07-17T06:37:06;95954.75;;;49.20;6.62
61961;BME280;47923;42.506;24.192;2022-07-17T06:39:31;95812.75;;;48.30;6.94
61961;BME280;47923;42.506;24.192;2022-07-17T06:41:57;95867.75;;;48.77;6.63
61961;BME280;47923;42.506;24.192;2022-07-17T06:44:23;95898.56;;;49.27;6.30
61961;BME280;47923;42.506;24.192;2022-07-17T06:46:49;95818.84;;;49.56;5.79
61961;BME280;47923;42.506;24.192;2022-07-17T06:49:14;95958.47;;;51.34;5.10
61961;BME280;47923;42.506;24.192;2022-07-17T06:51:40;95961.31;;;50.14;6.11
61961;BME280;47923;42.506;24.192;2022-07-17T06:54:05;95898.66;;;49.07;6.64
61961;BME280;47923;42.506;24.192;2022-07-17T06:56:31;95800.53;;;49.09;5.73
61961;BME280;47923;42.506;24.192;2022-07-17T06:58:56;95785.34;;;48.07;6.70
61961;BME280;47923;42.506;24.192;2022-07-17T07:01:22;95922.91;;;49.57;6.48
61961;BME280;47923;42.506;24.192;2022-07-17T07:03:47;95921.56;;;50.31;5.60
61961;BME280;47923;42.506;24.192;2022-07-17T07:06:13;95791.00;;;48.65;6.38
61961;BME280;47923;42.506;24.192;2022-07-17T07:08:38;95930.97;;;49.48;6.28
61961;BME280;47923;42.506;24.192;2022-07-17T07:11:04;95962.34;;;50.61;6.23
61961;BME280;47923;42.506;24.192;2022-07-17T07:13:30;95963.84;;;49.57;6.56
61961;BME280;47923;42.506;24.192;2022-07-17T07:15:55;95948.78;;;48.77;6.63
61961;BME280;47923;42.506;24.192;2022-07-17T07:18:21;95880.16;;;47.46;7.09
61961;BME280;47923;42.506;24.192;2022-07-17T07:20:47;95885.41;;;47.40;7.11
61961;BME280;47923;42.506;24.192;2022-07-17T07:23:13;95906.53;;;48.10;6.53
61961;BME280;47923;42.506;24.192;2022-07-17T07:25:39;95922.97;;;49.47;5.72
61961;BME280;47923;42.506;24.192;2022-07-17T07:28:04;95889.13;;;49.05;6.68
61961;BME280;47923;42.506;24.192;2022-07-17T07:30:30;95888.78;;;46.92;7.51
61961;BME280;47923;42.506;24.192;2022-07-17T07:32:55;95883.81;;;46.31;7.62
61961;BME280;47923;42.506;24.192;2022-07-17T07:35:21;95935.22;;;47.36;7.84
61961;BME280;47923;42.506;24.192;2022-07-17T07:37:47;95880.47;;;47.50;7.07
61961;BME280;47923;42.506;24.192;2022-07-17T07:40:13;95931.25;;;48.25;7.25
61961;BME280;47923;42.506;24.192;2022-07-17T07:42:38;95914.72;;;47.03;7.73
61961;BME280;47923;42.506;24.192;2022-07-17T07:45:05;95890.72;;;48.38;7.13
61961;BME280;47923;42.506;24.192;2022-07-17T07:47:30;95780.63;;;50.63;5.49
61961;BME280;47923;42.506;24.192;2022-07-17T07:49:56;95913.31;;;50.26;5.83
61961;BME280;47923;42.506;24.192;2022-07-17T07:52:21;95974.72;;;51.30;5.50
61961;BME280;47923;42.506;24.192;2022-07-17T07:54:47;95936.31;;;50.47;5.70
61961;BME280;47923;42.506;24.192;2022-07-17T07:57:12;95971.03;;;50.51;5.75
61961;BME280;47923;42.506;24.192;2022-07-17T07:59:37;95787.91;;;51.34;5.14
61961;BME280;47923;42.506;24.192;2022-07-17T08:02:03;95832.59;;;51.47;4.82
61961;BME280;47923;42.506;24.192;2022-07-17T08:04:29;95901.94;;;51.62;5.68
61961;BME280;47923;42.506;24.192;2022-07-17T08:06:55;95802.47;;;48.65;6.16
61961;BME280;47923;42.506;24.192;2022-07-17T08:09:21;95921.09;;;50.35;6.48
61961;BME280;47923;42.506;24.192;2022-07-17T08:11:47;95937.06;;;49.74;5.92
61961;BME280;47923;42.506;24.192;2022-07-17T08:14:12;95830.88;;;47.94;6.76
61961;BME280;47923;42.506;24.192;2022-07-17T08:16:37;95965.19;;;49.66;6.65
61961;BME280;47923;42.506;24.192;2022-07-17T08:19:03;95814.22;;;48.60;6.16
61961;BME280;47923;42.506;24.192;2022-07-17T08:21:29;95946.06;;;49.80;6.39
61961;BME280;47923;42.506;24.192;2022-07-17T08:23:54;95894.28;;;50.21;6.21
61961;BME280;47923;42.506;24.192;2022-07-17T08:26:20;95913.59;;;50.96;5.79
61961;BME280;47923;42.506;24.192;2022-07-17T08:28:45;95989.56;;;51.59;5.25
61961;BME280;47923;42.506;24.192;2022-07-17T08:31:11;95936.72;;;51.43;5.04
61961;BME280;47923;42.506;24.192;2022-07-17T08:33:37;95922.56;;;50.79;5.13
61961;BME280;47923;42.506;24.192;2022-07-17T08:36:03;95856.31;;;50.77;5.36
61961;BME280;47923;42.506;24.192;2022-07-17T08:38:29;95945.72;;;50.59;5.16
61961;BME280;47923;42.506;24.192;2022-07-17T08:40:54;95979.81;;;49.70;6.13
61961;BME280;47923;42.506;24.192;2022-07-17T08:43:20;95794.38;;;49.55;5.65
61961;BME280;47923;42.506;24.192;2022-07-17T08:45:47;95964.28;;;50.47;5.32
61961;BME280;47923;42.506;24.192;2022-07-17T08:48:14;95910.75;;;49.77;6.17
61961;BME280;47923;42.506;24.192;2022-07-17T08:50:41;95949.66;;;51.09;5.89
61961;BME280;47923;42.506;24.192;2022-07-17T08:53:07;95821.66;;;49.66;5.53
61961;BME280;47923;42.506;24.192;2022-07-17T08:55:33;95926.50;;;49.98;6.08
61961;BME280;47923;42.506;24.192;2022-07-17T08:57:59;95870.09;;;49.09;5.99
61961;BME280;47923;42.506;24.192;2022-07-17T09:00:26;95951.81;;;48.79;6.45
61961;BME280;47923;42.506;24.192;2022-07-17T09:03:01;95985.56;;;50.11;6.11
61961;BME280;47923;42.506;24.192;2022-07-17T09:05:33;95948.56;;;50.81;5.20
61961;BME280;47923;42.506;24.192;2022-07-17T09:08:00;95991.78;;;52.08;4.86
61961;BME280;47923;42.506;24.192;2022-07-17T09:10:38;95860.19;;;49.32;5.56
61961;BME280;47923;42.506;24.192;2022-07-17T09:15:47;96000.16;;;49.84;5.74
61961;BME280;47923;42.506;24.192;2022-07-17T09:18:13;95881.19;;;47.14;6.42
61961;BME280;47923;42.506;24.192;2022-07-17T09:20:50;95995.94;;;49.44;5.37
61961;BME280;47923;42.506;24.192;2022-07-17T09:23:17;95954.53;;;49.88;5.51
61961;BME280;47923;42.506;24.192;2022-07-17T09:25:45;95946.06;;;49.80;5.65
61961;BME280;47923;42.506;24.192;2022-07-17T09:28:13;95987.41;;;49.56;5.90
61961;BME280;47923;42.506;24.192;2022-07-17T09:30:41;95878.91;;;49.64;5.81
61961;BME280;47923;42.506;24.192;2022-07-17T09:33:12;95982.41;;;50.28;5.62
61961;BME280;47923;42.506;24.192;2022-07-17T09:36:06;95994.44;;;50.36;5.49
61961;BME280;47923;42.506;24.192;2022-07-17T09:38:40;95909.81;;;49.54;5.84
61961;BME280;47923;42.506;24.192;2022-07-17T09:41:13;95967.81;;;50.14;5.66
61961;BME280;47923;42.506;24.192;2022-07-17T09:43:49;95976.50;;;49.13;6.20
61961;BME280;47923;42.506;24.192;2022-07-17T09:48:52;95820.59;;;48.29;6.30
61961;BME280;47923;42.506;24.192;2022-07-17T09:51:23;95943.78;;;48.87;6.18
61961;BME280;47923;42.506;24.192;2022-07-17T09:53:51;95950.25;;;49.58;6.22
61961;BME280;47923;42.506;24.192;2022-07-17T09:56:21;95918.81;;;50.76;5.85
61961;BME280;47923;42.506;24.192;2022-07-17T09:58:56;95943.72;;;50.95;5.32
61961;BME280;47923;42.506;24.192;2022-07-17T10:01:24;95947.81;;;50.47;5.86
61961;BME280;47923;42.506;24.192;2022-07-17T10:03:50;95821.78;;;49.46;5.40
61961;BME280;47923;42.506;24.192;2022-07-17T10:06:19;95792.09;;;47.73;6.30
61961;BME280;47923;42.506;24.192;2022-07-17T10:08:45;95922.34;;;46.74;7.11
61961;BME280;47923;42.506;24.192;2022-07-17T10:11:12;95900.97;;;47.56;7.06
61961;BME280;47923;42.506;24.192;2022-07-17T10:13:42;95921.25;;;47.50;7.10
61961;BME280;47923;42.506;24.192;2022-07-17T10:16:09;95908.63;;;48.77;6.33
61961;BME280;47923;42.506;24.192;2022-07-17T10:18:40;95983.56;;;49.82;6.20
61961;BME280;47923;42.506;24.192;2022-07-17T10:21:17;95681.19;;;45.44;7.20
61961;BME280;47923;42.506;24.192;2022-07-17T10:24:08;95967.97;;;47.89;7.39
61961;BME280;47923;42.506;24.192;2022-07-17T10:29:02;95916.97;;;47.05;7.45
61961;BME280;47923;42.506;24.192;2022-07-17T10:31:30;95915.84;;;47.18;7.36
61961;BME280;47923;42.506;24.192;2022-07-17T10:34:00;95923.34;;;46.69;7.36
61961;BME280;47923;42.506;24.192;2022-07-17T10:36:40;95979.38;;;45.37;8.21
61961;BME280;47923;42.506;24.192;2022-07-17T10:39:12;96007.00;;;44.79;8.64
61961;BME280;47923;42.506;24.192;2022-07-17T10:41:42;95884.00;;;42.52;9.68
61961;BME280;47923;42.506;24.192;2022-07-17T10:44:08;95775.94;;;40.02;10.93
61961;BME280;47923;42.506;24.192;2022-07-17T10:46:34;95984.09;;;40.24;12.13
61961;BME280;47923;42.506;24.192;2022-07-17T10:49:01;95912.09;;;38.89;12.75
61961;BME280;47923;42.506;24.192;2022-07-17T10:51:30;95741.13;;;36.94;13.35
61961;BME280;47923;42.506;24.192;2022-07-17T10:53:56;95707.84;;;35.97;14.72
61961;BME280;47923;42.506;24.192;2022-07-17T10:56:24;95836.59;;;36.15;14.95
61961;BME280;47923;42.506;24.192;2022-07-17T10:58:51;95976.94;;;36.71;15.57
61961;BME280;47923;42.506;24.192;2022-07-17T11:01:18;95992.06;;;35.93;16.28
61961;BME280;47923;42.506;24.192;2022-07-17T11:11:34;95985.56;;;34.75;18.66
61961;BME280;47923;42.506;24.192;2022-07-17T11:14:11;95987.06;;;34.71;17.94
61961;BME280;47923;42.506;24.192;2022-07-17T11:16:39;95984.03;;;34.74;18.51
61961;BME280;47923;42.506;24.192;2022-07-17T11:19:08;95959.22;;;34.56;18.39
61961;BME280;47923;42.506;24.192;2022-07-17T11:21:45;95939.66;;;34.13;19.15
61961;BME280;47923;42.506;24.192;2022-07-17T11:24:10;95897.63;;;33.70;19.16
61961;BME280;47923;42.506;24.192;2022-07-17T11:26:36;95838.97;;;33.13;19.74
61961;BME280;47923;42.506;24.192;2022-07-17T11:29:01;95879.13;;;33.10;19.44
61961;BME280;47923;42.506;24.192;2022-07-17T11:31:28;95868.97;;;32.55;19.95
61961;BME280;47923;42.506;24.192;2022-07-17T11:33:58;95926.50;;;32.87;19.72
61961;BME280;47923;42.506;24.192;2022-07-17T11:38:52;95973.06;;;32.90;20.48
61961;BME280;47923;42.506;24.192;2022-07-17T11:41:19;95973.44;;;32.78;20.64
61961;BME280;47923;42.506;24.192;2022-07-17T11:43:45;95981.22;;;32.68;20.57
61961;BME280;47923;42.506;24.192;2022-07-17T11:46:12;95825.22;;;31.44;20.66
61961;BME280;47923;42.506;24.192;2022-07-17T11:48:40;95961.53;;;32.36;21.46
61961;BME280;47923;42.506;24.192;2022-07-17T11:51:06;95943.63;;;32.28;21.08
61961;BME280;47923;42.506;24.192;2022-07-17T11:53:37;95910.38;;;31.89;21.14
61961;BME280;47923;42.506;24.192;2022-07-17T11:56:04;95970.66;;;32.16;21.38
61961;BME280;47923;42.506;24.192;2022-07-17T11:58:42;95905.91;;;31.62;21.84
61961;BME280;47923;42.506;24.192;2022-07-17T12:01:07;95900.19;;;31.51;21.50
61961;BME280;47923;42.506;24.192;2022-07-17T12:03:33;95823.59;;;31.02;22.17
61961;BME280;47923;42.506;24.192;2022-07-17T12:05:58;95879.47;;;31.23;22.12
61961;BME280;47923;42.506;24.192;2022-07-17T12:08:24;95840.06;;;30.86;22.51
61961;BME280;47923;42.506;24.192;2022-07-17T12:11:05;95876.69;;;31.08;21.92
61961;BME280;47923;42.506;24.192;2022-07-17T12:13:41;95856.41;;;30.48;22.95
61961;BME280;47923;42.506;24.192;2022-07-17T12:16:36;95953.59;;;30.56;23.96
61961;BME280;47923;42.506;24.192;2022-07-17T12:19:12;95845.50;;;30.21;24.04
61961;BME280;47923;42.506;24.192;2022-07-17T12:22:01;95964.72;;;31.39;23.55
61961;BME280;47923;42.506;24.192;2022-07-17T12:24:29;95938.25;;;31.69;22.85
61961;BME280;47923;42.506;24.192;2022-07-17T12:26:57;95837.31;;;31.06;22.61
61961;BME280;47923;42.506;24.192;2022-07-17T12:29:23;95861.97;;;31.43;22.83
61961;BME280;47923;42.506;24.192;2022-07-17T12:32:09;95923.88;;;31.76;21.67
61961;BME280;47923;42.506;24.192;2022-07-17T12:34:47;95924.97;;;31.64;22.56
61961;BME280;47923;42.506;24.192;2022-07-17T12:37:18;95716.75;;;30.32;22.74
61961;BME280;47923;42.506;24.192;2022-07-17T12:39:44;95797.56;;;30.76;22.62
61961;BME280;47923;42.506;24.192;2022-07-17T12:42:10;95590.19;;;29.05;22.77
61961;BME280;47923;42.506;24.192;2022-07-17T12:44:36;95780.66;;;30.50;22.87
61961;BME280;47923;42.506;24.192;2022-07-17T12:47:03;95830.06;;;30.79;22.56
61961;BME280;47923;42.506;24.192;2022-07-17T12:49:29;95773.91;;;30.57;22.59
61961;BME280;47923;42.506;24.192;2022-07-17T12:51:55;95871.44;;;31.45;22.48
61961;BME280;47923;42.506;24.192;2022-07-17T12:54:20;95838.38;;;31.23;22.48
61961;BME280;47923;42.506;24.192;2022-07-17T12:56:46;95707.81;;;30.42;22.64
61961;BME280;47923;42.506;24.192;2022-07-17T12:59:12;95844.47;;;31.07;22.34
61961;BME280;47923;42.506;24.192;2022-07-17T13:01:38;95851.06;;;31.24;22.67
61961;BME280;47923;42.506;24.192;2022-07-17T13:04:03;95901.16;;;31.48;22.57
61961;BME280;47923;42.506;24.192;2022-07-17T13:06:29;95810.16;;;30.86;22.14
61961;BME280;47923;42.506;24.192;2022-07-17T13:08:54;95847.03;;;31.11;23.20
61961;BME280;47923;42.506;24.192;2022-07-17T13:11:20;95839.72;;;30.98;23.02